Have a Safe July 4th! 

Flight Track Log - Related Links

Times and Time Zones

All times are in EDT time to prevent confusion due to time zone crossing. See the N125GH flight status page for this flight to view local times or setup timezone preferences in your user account.

Time Position Orientation Groundspeed Altitude Reporting Facility
EDT Latitude Longitude Course Direction KTS MPH feet Rate Location/Type
Sat 09:33:26 PM 34.3628 -93.1450 195° South 414 476 7,100  Level Memphis Center
Sat 09:34:26 PM 34.2914 -93.1678 195° South 359 413 10,400 2,700 Climbing Memphis Center
Sat 09:35:26 PM 34.1906 -93.1947 192° South 359 413 12,500 2,822 Climbing Memphis Center
Sat 09:37:31 PM 33.9478 -93.2447 190° South 413 475 19,100 2,951 Climbing Fort Worth Center
Sat 09:38:31 PM 33.8336 -93.2703 191° South 413 475 21,600 1,950 Climbing Fort Worth Center
Sat 09:39:31 PM 33.7094 -93.2986 191° South 435 501 23,000 1,500 Climbing Fort Worth Center
Sat 09:40:31 PM 33.5853 -93.3269 191° South 454 522 24,600 1,850 Climbing Fort Worth Center
Sat 09:41:31 PM 33.4567 -93.3553 190° South 460 529 26,700 2,067 Climbing Fort Worth Center
Sat 09:42:30 PM 33.3242 -93.3836 190° South 473 544 28,700 1,900 Climbing Fort Worth Center
Sat 09:43:31 PM 33.1942 -93.4317 197° South 483 556 30,500 1,388 Climbing Fort Worth Center
Sat 09:44:31 PM 33.0786 -93.4792 199° South 489 563 31,500 1,261 Climbing Fort Worth Center
Sat 09:45:30 PM 32.9447 -93.5344 199° South 501 577 33,000 1,450 Climbing Fort Worth Center
Sat 09:46:31 PM 32.8150 -93.5872 199° South 501 577 34,400 1,388 Climbing Fort Worth Center
Sat 09:47:31 PM 32.6869 -93.6394 199° South 501 577 35,800 1,412 Climbing Fort Worth Center
Sat 09:48:30 PM 32.5633 -93.6889 199° South 491 565 37,200 1,100 Climbing Fort Worth Center
Sat 09:49:31 PM 32.4417 -93.7408 200° South 479 551 38,000 397 Climbing Fort Worth Center
Sat 09:50:31 PM 32.3197 -93.7875 198° South 474 545 38,000  Level Fort Worth Center
Sat 09:51:31 PM 32.1981 -93.8364 199° South 469 540 38,000  Level Fort Worth Center
Sat 09:52:31 PM 32.0683 -93.8956 201° Southwest 464 534 38,000  Level Fort Worth Center
Sat 09:53:31 PM 31.9464 -93.9442 199° South 459 528 38,000  Level Fort Worth Center
Sat 09:54:31 PM 31.8225 -93.9953 199° South 466 536 38,000  Level Fort Worth Center
Sat 09:55:27 PM 31.7214 -94.0322 197° South 466 536 38,000  Level Houston Center
Sat 09:56:28 PM 31.5989 -94.0803 198° South 462 532 38,000  Level Houston Center
Sat 09:57:28 PM 31.4753 -94.1303 199° South 465 535 38,000 -347 Level Houston Center
Sat 09:58:29 PM 31.3508 -94.1783 198° South 467 537 37,300 -1,672 Descending Houston Center
Sat 09:59:30 PM 31.2269 -94.2269 199° South 466 536 34,600 -2,656 Descending Houston Center
Sat 10:00:31 PM 31.0972 -94.2781 199° South 480 552 31,900 -2,705 Descending Houston Center
Sat 10:01:32 PM 30.9653 -94.3303 199° South 492 566 29,100 -2,705 Descending Houston Center
Sat 10:02:33 PM 30.8378 -94.3797 198° South 482 555 26,400 -2,842 Descending Houston Center
Sat 10:03:26 PM 30.7175 -94.4297 200° South 464 534 23,700 -2,857 Descending Houston Center
Sat 10:03:57 PM 30.6506 -94.4556 198° South 455 524 22,400 -2,609 Descending Houston Center
Sat 10:04:35 PM 30.5758 -94.4847 199° South 450 518 20,700 -2,424 Descending Houston Center
Sat 10:05:36 PM 30.4742 -94.5631 214° Southwest 422 486 18,400 -1,918 Descending Houston Center
Sat 10:06:37 PM 30.3964 -94.6431 222° Southwest 416 479 16,800 -1,672 Descending Houston Center
Sat 10:07:38 PM 30.3167 -94.7297 223° Southwest 398 458 15,000 -1,721 Descending Houston Center
Sat 10:08:39 PM 30.2381 -94.8139 223° Southwest 387 445 13,300 -1,686 Descending Houston Center
Sat 10:09:39 PM 30.1617 -94.8956 223° Southwest 377 434 11,600 -1,636 Descending Houston Center
Sat 10:10:40 PM 30.0872 -94.9750 223° Southwest 366 421 10,000 -1,475 Descending Houston Center
Sat 10:11:41 PM 30.0208 -95.0447 222° Southwest 326 375 8,600 -1,377 Descending Houston Center
Sat 10:12:42 PM 29.9614 -95.1075 222° Southwest 295 339 7,200 -1,279 Descending Houston Center
Sat 10:13:43 PM 29.8950 -95.1778 223° Southwest 273 314 6,000 -934 Descending Houston Center
Sat 10:14:44 PM 29.8461 -95.2300 223° Southwest 245 282 5,300 -1,190 Descending Houston Center
Sat 10:15:44 PM 29.7936 -95.2856 223° Southwest 255 293 3,600 -1,140 Descending Houston Center
Sat 10:16:45 PM 29.7442 -95.3361 222° Southwest 239 275 3,000 -738 Descending Houston Center
Sat 10:17:46 PM 29.6928 -95.3400 184° South 204 235 2,100 -492 Descending Houston Center
Sat 10:18:47 PM 29.6561 -95.3536 198° South 178 205 2,000 -50 Descending Houston Center
Sat 10:19:47 PM 29.6378 -95.4011 246° West 167 192 2,000  Level Houston Center
Sat 10:20:48 PM 29.6467 -95.4481 282° West 167 192 2,000  Level Houston Center
Sat 10:21:23 PM 29.6742 -95.4383 17° North 150 173 2,000  Level Houston Center
Sat 10:22:18 PM 29.6989 -95.4089 46° Northeast 156 180 2,000  Level Houston Center
Sat 10:22:50 PM 29.7050 -95.3894 70° East 160 184 2,000 -358 Level Houston Center
Sat 10:23:25 PM 29.7083 -95.3525 84° East 154 177 1,600 -568 Descending Houston Center
Sat 10:24:25 PM 29.6828 -95.3242 136° Southeast 125 144 1,100 -645 Descending Houston Center
Sat 10:25:26 PM 29.6589 -95.2936 132° Southeast 139 160 300 -787 Descending Houston Center

Login

Don't have an account? Register now (free) for customized features, flight alerts, and more!